sensor_id;sensor_type;location;lat;lon;timestamp;P1;durP1;ratioP1;P2;durP2;ratioP2
9496;SDS011;4786;51.270;4.456;2023-07-31T00:00:26;13.67;;;5.80;;
9496;SDS011;4786;51.270;4.456;2023-07-31T00:02:52;15.43;;;6.23;;
9496;SDS011;4786;51.270;4.456;2023-07-31T00:05:19;13.53;;;5.90;;
9496;SDS011;4786;51.270;4.456;2023-07-31T00:07:45;12.10;;;6.33;;
9496;SDS011;4786;51.270;4.456;2023-07-31T00:10:11;15.30;;;6.10;;
9496;SDS011;4786;51.270;4.456;2023-07-31T00:12:42;13.47;;;6.60;;
9496;SDS011;4786;51.270;4.456;2023-07-31T00:15:09;15.23;;;7.03;;
9496;SDS011;4786;51.270;4.456;2023-07-31T00:17:36;13.43;;;5.93;;
9496;SDS011;4786;51.270;4.456;2023-07-31T00:20:02;14.80;;;6.60;;
9496;SDS011;4786;51.270;4.456;2023-07-31T00:22:28;16.80;;;7.03;;
9496;SDS011;4786;51.270;4.456;2023-07-31T00:24:55;14.00;;;6.40;;
9496;SDS011;4786;51.270;4.456;2023-07-31T00:27:21;16.23;;;7.03;;
9496;SDS011;4786;51.270;4.456;2023-07-31T00:29:47;14.03;;;6.40;;
9496;SDS011;4786;51.270;4.456;2023-07-31T00:32:13;11.77;;;6.57;;
9496;SDS011;4786;51.270;4.456;2023-07-31T00:34:39;14.53;;;6.50;;
9496;SDS011;4786;51.270;4.456;2023-07-31T00:37:05;14.33;;;6.63;;
9496;SDS011;4786;51.270;4.456;2023-07-31T00:39:31;13.90;;;6.83;;
9496;SDS011;4786;51.270;4.456;2023-07-31T00:41:57;15.27;;;6.67;;
9496;SDS011;4786;51.270;4.456;2023-07-31T00:44:23;18.70;;;7.87;;
9496;SDS011;4786;51.270;4.456;2023-07-31T00:46:49;14.73;;;6.33;;
9496;SDS011;4786;51.270;4.456;2023-07-31T00:49:15;15.50;;;6.80;;
9496;SDS011;4786;51.270;4.456;2023-07-31T00:51:41;15.43;;;6.93;;
9496;SDS011;4786;51.270;4.456;2023-07-31T00:54:08;17.17;;;6.83;;
9496;SDS011;4786;51.270;4.456;2023-07-31T00:56:34;19.70;;;6.67;;
9496;SDS011;4786;51.270;4.456;2023-07-31T00:59:01;16.10;;;7.37;;
9496;SDS011;4786;51.270;4.456;2023-07-31T01:01:27;13.50;;;6.60;;
9496;SDS011;4786;51.270;4.456;2023-07-31T01:03:53;16.97;;;6.80;;
9496;SDS011;4786;51.270;4.456;2023-07-31T01:11:57;18.43;;;7.57;;
9496;SDS011;4786;51.270;4.456;2023-07-31T01:14:27;13.80;;;7.27;;
9496;SDS011;4786;51.270;4.456;2023-07-31T01:16:53;12.90;;;6.33;;
9496;SDS011;4786;51.270;4.456;2023-07-31T01:19:21;18.43;;;7.10;;
9496;SDS011;4786;51.270;4.456;2023-07-31T01:27:44;16.47;;;7.60;;
9496;SDS011;4786;51.270;4.456;2023-07-31T01:30:18;15.63;;;7.53;;
9496;SDS011;4786;51.270;4.456;2023-07-31T01:32:49;12.80;;;6.50;;
9496;SDS011;4786;51.270;4.456;2023-07-31T01:35:18;17.23;;;7.20;;
9496;SDS011;4786;51.270;4.456;2023-07-31T01:37:43;12.13;;;6.80;;
9496;SDS011;4786;51.270;4.456;2023-07-31T01:40:11;14.20;;;6.80;;
9496;SDS011;4786;51.270;4.456;2023-07-31T01:42:36;11.63;;;6.80;;
9496;SDS011;4786;51.270;4.456;2023-07-31T01:45:03;15.50;;;7.10;;
9496;SDS011;4786;51.270;4.456;2023-07-31T01:47:30;15.77;;;7.00;;
9496;SDS011;4786;51.270;4.456;2023-07-31T01:49:56;17.50;;;7.37;;
9496;SDS011;4786;51.270;4.456;2023-07-31T01:52:22;13.20;;;6.87;;
9496;SDS011;4786;51.270;4.456;2023-07-31T01:54:48;14.43;;;6.87;;
9496;SDS011;4786;51.270;4.456;2023-07-31T01:57:14;13.53;;;6.47;;
9496;SDS011;4786;51.270;4.456;2023-07-31T01:59:40;17.20;;;6.80;;
9496;SDS011;4786;51.270;4.456;2023-07-31T02:02:06;13.63;;;6.43;;
9496;SDS011;4786;51.270;4.456;2023-07-31T02:04:32;17.30;;;7.37;;
9496;SDS011;4786;51.270;4.456;2023-07-31T02:06:57;13.20;;;6.50;;
9496;SDS011;4786;51.270;4.456;2023-07-31T02:09:24;19.03;;;7.13;;
9496;SDS011;4786;51.270;4.456;2023-07-31T02:11:50;12.13;;;6.57;;
9496;SDS011;4786;51.270;4.456;2023-07-31T02:14:16;15.10;;;7.00;;
9496;SDS011;4786;51.270;4.456;2023-07-31T02:16:42;19.43;;;6.83;;
9496;SDS011;4786;51.270;4.456;2023-07-31T02:19:08;13.73;;;6.67;;
9496;SDS011;4786;51.270;4.456;2023-07-31T02:21:34;11.87;;;6.10;;
9496;SDS011;4786;51.270;4.456;2023-07-31T02:23:59;11.10;;;6.13;;
9496;SDS011;4786;51.270;4.456;2023-07-31T02:26:25;13.57;;;6.40;;
9496;SDS011;4786;51.270;4.456;2023-07-31T02:28:50;15.70;;;6.87;;
9496;SDS011;4786;51.270;4.456;2023-07-31T02:31:17;12.57;;;6.00;;
9496;SDS011;4786;51.270;4.456;2023-07-31T02:33:43;13.93;;;7.03;;
9496;SDS011;4786;51.270;4.456;2023-07-31T02:36:09;12.00;;;5.60;;
9496;SDS011;4786;51.270;4.456;2023-07-31T02:38:35;18.77;;;7.07;;
9496;SDS011;4786;51.270;4.456;2023-07-31T02:41:01;14.37;;;6.67;;
9496;SDS011;4786;51.270;4.456;2023-07-31T02:43:27;13.77;;;5.97;;
9496;SDS011;4786;51.270;4.456;2023-07-31T02:45:53;12.80;;;5.83;;
9496;SDS011;4786;51.270;4.456;2023-07-31T02:48:19;14.10;;;6.07;;
9496;SDS011;4786;51.270;4.456;2023-07-31T02:50:47;9.90;;;5.57;;
9496;SDS011;4786;51.270;4.456;2023-07-31T02:53:13;12.87;;;6.17;;
9496;SDS011;4786;51.270;4.456;2023-07-31T02:55:40;13.63;;;5.90;;
9496;SDS011;4786;51.270;4.456;2023-07-31T02:58:06;16.70;;;6.47;;
9496;SDS011;4786;51.270;4.456;2023-07-31T03:00:32;15.20;;;6.33;;
9496;SDS011;4786;51.270;4.456;2023-07-31T03:02:58;14.63;;;6.47;;
9496;SDS011;4786;51.270;4.456;2023-07-31T03:05:24;13.17;;;6.17;;
9496;SDS011;4786;51.270;4.456;2023-07-31T03:07:50;16.37;;;5.70;;
9496;SDS011;4786;51.270;4.456;2023-07-31T03:10:16;12.70;;;5.63;;
9496;SDS011;4786;51.270;4.456;2023-07-31T03:12:43;15.77;;;6.50;;
9496;SDS011;4786;51.270;4.456;2023-07-31T03:15:13;12.60;;;5.67;;
9496;SDS011;4786;51.270;4.456;2023-07-31T03:17:38;14.83;;;5.90;;
9496;SDS011;4786;51.270;4.456;2023-07-31T03:20:04;13.90;;;6.00;;
9496;SDS011;4786;51.270;4.456;2023-07-31T03:22:30;12.87;;;6.20;;
9496;SDS011;4786;51.270;4.456;2023-07-31T03:24:57;13.63;;;6.30;;
9496;SDS011;4786;51.270;4.456;2023-07-31T03:27:22;12.93;;;5.47;;
9496;SDS011;4786;51.270;4.456;2023-07-31T03:29:48;12.60;;;5.77;;
9496;SDS011;4786;51.270;4.456;2023-07-31T03:32:16;12.43;;;5.77;;
9496;SDS011;4786;51.270;4.456;2023-07-31T03:34:42;14.13;;;6.03;;
9496;SDS011;4786;51.270;4.456;2023-07-31T03:37:07;12.00;;;6.07;;
9496;SDS011;4786;51.270;4.456;2023-07-31T03:39:34;10.50;;;5.53;;
9496;SDS011;4786;51.270;4.456;2023-07-31T03:42:00;14.27;;;5.93;;
9496;SDS011;4786;51.270;4.456;2023-07-31T03:44:26;15.17;;;5.63;;
9496;SDS011;4786;51.270;4.456;2023-07-31T03:46:52;14.40;;;5.93;;
9496;SDS011;4786;51.270;4.456;2023-07-31T03:49:18;13.50;;;5.50;;
9496;SDS011;4786;51.270;4.456;2023-07-31T03:51:44;17.07;;;5.97;;
9496;SDS011;4786;51.270;4.456;2023-07-31T03:54:10;15.17;;;5.57;;
9496;SDS011;4786;51.270;4.456;2023-07-31T03:56:36;14.47;;;6.17;;
9496;SDS011;4786;51.270;4.456;2023-07-31T03:59:03;12.80;;;5.63;;
9496;SDS011;4786;51.270;4.456;2023-07-31T04:01:29;12.27;;;6.23;;
9496;SDS011;4786;51.270;4.456;2023-07-31T04:03:55;12.17;;;5.90;;
9496;SDS011;4786;51.270;4.456;2023-07-31T04:06:21;14.90;;;6.53;;
9496;SDS011;4786;51.270;4.456;2023-07-31T04:08:47;14.07;;;5.57;;
9496;SDS011;4786;51.270;4.456;2023-07-31T04:11:13;13.43;;;5.90;;
9496;SDS011;4786;51.270;4.456;2023-07-31T04:13:40;14.63;;;6.37;;
9496;SDS011;4786;51.270;4.456;2023-07-31T04:16:05;13.77;;;6.30;;
9496;SDS011;4786;51.270;4.456;2023-07-31T04:18:31;13.73;;;6.50;;
9496;SDS011;4786;51.270;4.456;2023-07-31T04:20:58;11.10;;;5.67;;
9496;SDS011;4786;51.270;4.456;2023-07-31T04:23:24;12.23;;;5.93;;
9496;SDS011;4786;51.270;4.456;2023-07-31T04:25:51;13.20;;;6.17;;
9496;SDS011;4786;51.270;4.456;2023-07-31T04:28:17;11.83;;;6.00;;
9496;SDS011;4786;51.270;4.456;2023-07-31T04:30:42;14.27;;;5.80;;
9496;SDS011;4786;51.270;4.456;2023-07-31T04:33:08;10.70;;;5.50;;
9496;SDS011;4786;51.270;4.456;2023-07-31T04:35:34;12.10;;;5.77;;
9496;SDS011;4786;51.270;4.456;2023-07-31T04:38:00;9.53;;;5.47;;
9496;SDS011;4786;51.270;4.456;2023-07-31T04:40:30;10.90;;;5.47;;
9496;SDS011;4786;51.270;4.456;2023-07-31T04:42:55;10.90;;;5.47;;
9496;SDS011;4786;51.270;4.456;2023-07-31T04:45:21;7.63;;;5.23;;
9496;SDS011;4786;51.270;4.456;2023-07-31T04:47:50;14.03;;;5.80;;
9496;SDS011;4786;51.270;4.456;2023-07-31T04:50:16;12.70;;;5.77;;
9496;SDS011;4786;51.270;4.456;2023-07-31T04:52:42;8.80;;;5.87;;
9496;SDS011;4786;51.270;4.456;2023-07-31T04:55:08;10.33;;;5.67;;
9496;SDS011;4786;51.270;4.456;2023-07-31T04:57:34;10.40;;;6.07;;
9496;SDS011;4786;51.270;4.456;2023-07-31T05:00:02;11.23;;;6.07;;
9496;SDS011;4786;51.270;4.456;2023-07-31T05:02:28;9.27;;;5.60;;
9496;SDS011;4786;51.270;4.456;2023-07-31T05:04:54;8.30;;;5.70;;
9496;SDS011;4786;51.270;4.456;2023-07-31T05:07:20;8.23;;;5.30;;
9496;SDS011;4786;51.270;4.456;2023-07-31T05:09:46;9.27;;;5.93;;
9496;SDS011;4786;51.270;4.456;2023-07-31T05:12:12;7.43;;;5.07;;
9496;SDS011;4786;51.270;4.456;2023-07-31T05:14:38;11.77;;;5.33;;
9496;SDS011;4786;51.270;4.456;2023-07-31T05:17:04;8.63;;;5.20;;
9496;SDS011;4786;51.270;4.456;2023-07-31T05:19:30;10.67;;;4.90;;
9496;SDS011;4786;51.270;4.456;2023-07-31T05:21:56;9.70;;;4.90;;
9496;SDS011;4786;51.270;4.456;2023-07-31T05:24:22;9.07;;;5.07;;
9496;SDS011;4786;51.270;4.456;2023-07-31T05:26:48;8.07;;;4.70;;
9496;SDS011;4786;51.270;4.456;2023-07-31T05:29:14;8.77;;;4.40;;
9496;SDS011;4786;51.270;4.456;2023-07-31T05:31:40;7.70;;;4.93;;
9496;SDS011;4786;51.270;4.456;2023-07-31T05:34:06;7.77;;;4.90;;
9496;SDS011;4786;51.270;4.456;2023-07-31T05:36:31;7.77;;;5.00;;
9496;SDS011;4786;51.270;4.456;2023-07-31T05:38:58;7.37;;;5.20;;
9496;SDS011;4786;51.270;4.456;2023-07-31T05:41:23;7.97;;;4.53;;
9496;SDS011;4786;51.270;4.456;2023-07-31T05:43:49;7.10;;;4.27;;
9496;SDS011;4786;51.270;4.456;2023-07-31T05:46:16;7.00;;;5.00;;
9496;SDS011;4786;51.270;4.456;2023-07-31T05:48:42;6.13;;;4.60;;
9496;SDS011;4786;51.270;4.456;2023-07-31T05:51:07;6.77;;;4.60;;
9496;SDS011;4786;51.270;4.456;2023-07-31T05:53:33;10.37;;;5.00;;
9496;SDS011;4786;51.270;4.456;2023-07-31T05:56:01;5.90;;;4.53;;
9496;SDS011;4786;51.270;4.456;2023-07-31T05:58:27;6.70;;;4.63;;
9496;SDS011;4786;51.270;4.456;2023-07-31T06:00:53;5.70;;;4.30;;
9496;SDS011;4786;51.270;4.456;2023-07-31T06:03:19;6.30;;;4.50;;
9496;SDS011;4786;51.270;4.456;2023-07-31T06:05:44;5.20;;;3.90;;
9496;SDS011;4786;51.270;4.456;2023-07-31T06:08:10;7.00;;;4.73;;
9496;SDS011;4786;51.270;4.456;2023-07-31T06:10:36;5.37;;;4.43;;
9496;SDS011;4786;51.270;4.456;2023-07-31T06:13:02;6.70;;;4.40;;
9496;SDS011;4786;51.270;4.456;2023-07-31T06:15:27;9.03;;;4.80;;
9496;SDS011;4786;51.270;4.456;2023-07-31T06:17:53;6.23;;;5.00;;
9496;SDS011;4786;51.270;4.456;2023-07-31T06:20:19;6.03;;;4.50;;
9496;SDS011;4786;51.270;4.456;2023-07-31T06:22:45;6.90;;;5.30;;
9496;SDS011;4786;51.270;4.456;2023-07-31T06:25:11;8.83;;;5.87;;
9496;SDS011;4786;51.270;4.456;2023-07-31T06:27:37;8.47;;;5.90;;
9496;SDS011;4786;51.270;4.456;2023-07-31T06:30:03;6.20;;;5.33;;
9496;SDS011;4786;51.270;4.456;2023-07-31T06:32:30;12.17;;;6.10;;
9496;SDS011;4786;51.270;4.456;2023-07-31T06:34:55;8.37;;;5.33;;
9496;SDS011;4786;51.270;4.456;2023-07-31T06:37:22;8.50;;;5.87;;
9496;SDS011;4786;51.270;4.456;2023-07-31T06:39:47;9.47;;;6.03;;
9496;SDS011;4786;51.270;4.456;2023-07-31T06:42:14;7.50;;;5.57;;
9496;SDS011;4786;51.270;4.456;2023-07-31T06:44:39;7.47;;;6.30;;
9496;SDS011;4786;51.270;4.456;2023-07-31T06:47:05;8.33;;;5.93;;
9496;SDS011;4786;51.270;4.456;2023-07-31T06:49:31;9.63;;;5.83;;
9496;SDS011;4786;51.270;4.456;2023-07-31T06:51:57;9.50;;;5.63;;
9496;SDS011;4786;51.270;4.456;2023-07-31T06:54:23;8.23;;;5.63;;
9496;SDS011;4786;51.270;4.456;2023-07-31T06:56:49;8.83;;;6.07;;
9496;SDS011;4786;51.270;4.456;2023-07-31T06:59:14;7.70;;;5.73;;
9496;SDS011;4786;51.270;4.456;2023-07-31T07:01:40;9.20;;;5.53;;
9496;SDS011;4786;51.270;4.456;2023-07-31T07:04:06;6.60;;;5.43;;
9496;SDS011;4786;51.270;4.456;2023-07-31T07:06:32;8.83;;;5.50;;
9496;SDS011;4786;51.270;4.456;2023-07-31T07:08:58;9.17;;;5.53;;
9496;SDS011;4786;51.270;4.456;2023-07-31T07:11:24;10.33;;;4.90;;
9496;SDS011;4786;51.270;4.456;2023-07-31T07:13:50;7.97;;;6.17;;
9496;SDS011;4786;51.270;4.456;2023-07-31T07:16:17;8.87;;;5.50;;
9496;SDS011;4786;51.270;4.456;2023-07-31T07:18:43;8.90;;;5.23;;
9496;SDS011;4786;51.270;4.456;2023-07-31T07:21:09;7.03;;;5.03;;
9496;SDS011;4786;51.270;4.456;2023-07-31T07:23:39;8.83;;;5.33;;
9496;SDS011;4786;51.270;4.456;2023-07-31T07:26:05;11.07;;;5.70;;
9496;SDS011;4786;51.270;4.456;2023-07-31T07:28:30;8.83;;;5.20;;
9496;SDS011;4786;51.270;4.456;2023-07-31T07:30:56;11.77;;;5.70;;
9496;SDS011;4786;51.270;4.456;2023-07-31T07:33:22;12.93;;;5.50;;
9496;SDS011;4786;51.270;4.456;2023-07-31T07:35:48;12.17;;;6.00;;
9496;SDS011;4786;51.270;4.456;2023-07-31T07:38:14;8.40;;;4.93;;
9496;SDS011;4786;51.270;4.456;2023-07-31T07:40:44;8.67;;;5.00;;
9496;SDS011;4786;51.270;4.456;2023-07-31T07:43:11;10.50;;;5.23;;
9496;SDS011;4786;51.270;4.456;2023-07-31T07:45:37;9.90;;;5.47;;
9496;SDS011;4786;51.270;4.456;2023-07-31T07:48:03;8.27;;;5.27;;
9496;SDS011;4786;51.270;4.456;2023-07-31T07:50:29;7.93;;;4.97;;
9496;SDS011;4786;51.270;4.456;2023-07-31T07:52:56;6.60;;;5.13;;
9496;SDS011;4786;51.270;4.456;2023-07-31T07:55:21;7.03;;;4.80;;
9496;SDS011;4786;51.270;4.456;2023-07-31T07:57:48;7.73;;;4.73;;
9496;SDS011;4786;51.270;4.456;2023-07-31T08:00:15;7.60;;;4.50;;
9496;SDS011;4786;51.270;4.456;2023-07-31T08:02:42;9.70;;;4.87;;
9496;SDS011;4786;51.270;4.456;2023-07-31T08:05:08;8.97;;;5.07;;
9496;SDS011;4786;51.270;4.456;2023-07-31T08:07:34;9.30;;;4.80;;
9496;SDS011;4786;51.270;4.456;2023-07-31T08:09:59;5.57;;;4.70;;
9496;SDS011;4786;51.270;4.456;2023-07-31T08:12:26;9.73;;;4.57;;
9496;SDS011;4786;51.270;4.456;2023-07-31T08:14:52;6.30;;;4.70;;
9496;SDS011;4786;51.270;4.456;2023-07-31T08:17:18;6.10;;;4.70;;
9496;SDS011;4786;51.270;4.456;2023-07-31T08:19:44;10.50;;;4.40;;
9496;SDS011;4786;51.270;4.456;2023-07-31T08:22:11;8.23;;;4.10;;
9496;SDS011;4786;51.270;4.456;2023-07-31T08:24:36;8.17;;;4.60;;
9496;SDS011;4786;51.270;4.456;2023-07-31T08:27:02;7.97;;;4.37;;
9496;SDS011;4786;51.270;4.456;2023-07-31T08:29:28;7.10;;;4.30;;
9496;SDS011;4786;51.270;4.456;2023-07-31T08:31:54;6.87;;;4.00;;
9496;SDS011;4786;51.270;4.456;2023-07-31T08:34:21;8.27;;;3.97;;
9496;SDS011;4786;51.270;4.456;2023-07-31T08:36:46;5.10;;;3.97;;
9496;SDS011;4786;51.270;4.456;2023-07-31T08:39:12;7.57;;;3.63;;
9496;SDS011;4786;51.270;4.456;2023-07-31T08:41:38;6.83;;;3.70;;
9496;SDS011;4786;51.270;4.456;2023-07-31T08:44:05;6.83;;;3.77;;
9496;SDS011;4786;51.270;4.456;2023-07-31T08:46:32;5.67;;;3.80;;
9496;SDS011;4786;51.270;4.456;2023-07-31T08:48:58;4.53;;;3.47;;
9496;SDS011;4786;51.270;4.456;2023-07-31T08:51:25;9.33;;;3.50;;
9496;SDS011;4786;51.270;4.456;2023-07-31T08:53:52;8.53;;;4.00;;
9496;SDS011;4786;51.270;4.456;2023-07-31T08:56:18;7.43;;;3.47;;
9496;SDS011;4786;51.270;4.456;2023-07-31T08:58:44;9.02;;;3.67;;
9496;SDS011;4786;51.270;4.456;2023-07-31T09:01:13;6.30;;;3.60;;
9496;SDS011;4786;51.270;4.456;2023-07-31T09:03:40;10.10;;;3.87;;
9496;SDS011;4786;51.270;4.456;2023-07-31T09:06:08;6.72;;;3.75;;
9496;SDS011;4786;51.270;4.456;2023-07-31T09:08:34;7.45;;;3.80;;
9496;SDS011;4786;51.270;4.456;2023-07-31T09:11:02;4.57;;;3.50;;
9496;SDS011;4786;51.270;4.456;2023-07-31T09:13:29;7.80;;;3.63;;
9496;SDS011;4786;51.270;4.456;2023-07-31T09:15:56;5.00;;;3.17;;
9496;SDS011;4786;51.270;4.456;2023-07-31T09:18:22;5.90;;;3.70;;
9496;SDS011;4786;51.270;4.456;2023-07-31T09:21:04;4.67;;;3.40;;
9496;SDS011;4786;51.270;4.456;2023-07-31T09:23:44;5.27;;;3.70;;
9496;SDS011;4786;51.270;4.456;2023-07-31T09:26:16;6.45;;;3.30;;
9496;SDS011;4786;51.270;4.456;2023-07-31T09:29:01;6.57;;;3.30;;
9496;SDS011;4786;51.270;4.456;2023-07-31T09:34:08;5.15;;;3.05;;
9496;SDS011;4786;51.270;4.456;2023-07-31T09:36:46;8.27;;;3.05;;
9496;SDS011;4786;51.270;4.456;2023-07-31T09:39:13;4.45;;;3.22;;
9496;SDS011;4786;51.270;4.456;2023-07-31T09:41:44;5.10;;;3.30;;
9496;SDS011;4786;51.270;4.456;2023-07-31T09:44:12;5.10;;;3.20;;
9496;SDS011;4786;51.270;4.456;2023-07-31T09:46:39;5.38;;;2.90;;
9496;SDS011;4786;51.270;4.456;2023-07-31T09:49:06;4.22;;;3.03;;
9496;SDS011;4786;51.270;4.456;2023-07-31T09:51:36;4.95;;;3.10;;
9496;SDS011;4786;51.270;4.456;2023-07-31T09:54:12;5.35;;;3.08;;
9496;SDS011;4786;51.270;4.456;2023-07-31T09:56:48;3.55;;;3.20;;
9496;SDS011;4786;51.270;4.456;2023-07-31T09:59:16;5.55;;;3.40;;
9496;SDS011;4786;51.270;4.456;2023-07-31T10:01:43;7.43;;;3.47;;
9496;SDS011;4786;51.270;4.456;2023-07-31T10:04:11;4.43;;;3.10;;
9496;SDS011;4786;51.270;4.456;2023-07-31T10:06:39;5.60;;;3.10;;
9496;SDS011;4786;51.270;4.456;2023-07-31T10:09:09;4.10;;;2.78;;
9496;SDS011;4786;51.270;4.456;2023-07-31T10:11:45;6.18;;;3.40;;
9496;SDS011;4786;51.270;4.456;2023-07-31T10:14:22;5.15;;;3.70;;
9496;SDS011;4786;51.270;4.456;2023-07-31T10:16:51;5.33;;;3.97;;
9496;SDS011;4786;51.270;4.456;2023-07-31T10:19:18;5.57;;;3.70;;
9496;SDS011;4786;51.270;4.456;2023-07-31T10:21:45;4.35;;;3.45;;
9496;SDS011;4786;51.270;4.456;2023-07-31T10:24:13;7.90;;;3.70;;
9496;SDS011;4786;51.270;4.456;2023-07-31T10:26:41;5.82;;;3.40;;
9496;SDS011;4786;51.270;4.456;2023-07-31T10:29:11;6.53;;;3.83;;
9496;SDS011;4786;51.270;4.456;2023-07-31T10:31:37;5.90;;;3.63;;
9496;SDS011;4786;51.270;4.456;2023-07-31T10:34:03;7.03;;;4.53;;
9496;SDS011;4786;51.270;4.456;2023-07-31T10:36:30;7.53;;;4.45;;
9496;SDS011;4786;51.270;4.456;2023-07-31T10:38:56;5.75;;;4.45;;
9496;SDS011;4786;51.270;4.456;2023-07-31T10:41:30;7.20;;;4.25;;
9496;SDS011;4786;51.270;4.456;2023-07-31T10:43:58;9.50;;;4.78;;
9496;SDS011;4786;51.270;4.456;2023-07-31T10:46:25;7.88;;;5.00;;
9496;SDS011;4786;51.270;4.456;2023-07-31T10:49:02;6.57;;;4.57;;
9496;SDS011;4786;51.270;4.456;2023-07-31T10:51:35;7.07;;;4.47;;
9496;SDS011;4786;51.270;4.456;2023-07-31T10:54:11;7.70;;;4.65;;
9496;SDS011;4786;51.270;4.456;2023-07-31T10:56:37;7.90;;;4.63;;
9496;SDS011;4786;51.270;4.456;2023-07-31T10:59:04;6.30;;;4.10;;
9496;SDS011;4786;51.270;4.456;2023-07-31T11:01:50;5.60;;;4.22;;
9496;SDS011;4786;51.270;4.456;2023-07-31T11:04:21;5.97;;;4.05;;
9496;SDS011;4786;51.270;4.456;2023-07-31T11:06:56;5.65;;;4.60;;
9496;SDS011;4786;51.270;4.456;2023-07-31T11:09:23;7.38;;;4.97;;
9496;SDS011;4786;51.270;4.456;2023-07-31T11:11:53;7.68;;;4.97;;
9496;SDS011;4786;51.270;4.456;2023-07-31T11:14:20;5.38;;;4.40;;
9496;SDS011;4786;51.270;4.456;2023-07-31T11:16:45;6.32;;;4.75;;
9496;SDS011;4786;51.270;4.456;2023-07-31T11:19:15;10.07;;;4.85;;
9496;SDS011;4786;51.270;4.456;2023-07-31T11:21:47;6.53;;;4.43;;
9496;SDS011;4786;51.270;4.456;2023-07-31T11:24:14;7.88;;;4.75;;
9496;SDS011;4786;51.270;4.456;2023-07-31T11:26:47;7.05;;;4.28;;
9496;SDS011;4786;51.270;4.456;2023-07-31T11:29:15;4.82;;;4.35;;
9496;SDS011;4786;51.270;4.456;2023-07-31T11:31:44;7.22;;;4.75;;
9496;SDS011;4786;51.270;4.456;2023-07-31T11:34:11;5.85;;;5.13;;
9496;SDS011;4786;51.270;4.456;2023-07-31T11:36:37;6.88;;;5.35;;
9496;SDS011;4786;51.270;4.456;2023-07-31T11:39:04;8.15;;;5.55;;
9496;SDS011;4786;51.270;4.456;2023-07-31T11:41:31;8.02;;;5.38;;
9496;SDS011;4786;51.270;4.456;2023-07-31T11:44:00;9.18;;;5.72;;
9496;SDS011;4786;51.270;4.456;2023-07-31T11:46:27;8.10;;;5.68;;
9496;SDS011;4786;51.270;4.456;2023-07-31T11:48:59;9.82;;;6.15;;
9496;SDS011;4786;51.270;4.456;2023-07-31T11:51:25;9.00;;;5.90;;
9496;SDS011;4786;51.270;4.456;2023-07-31T11:53:58;8.63;;;5.53;;
9496;SDS011;4786;51.270;4.456;2023-07-31T11:56:27;8.48;;;5.85;;
9496;SDS011;4786;51.270;4.456;2023-07-31T11:58:55;7.22;;;5.55;;
9496;SDS011;4786;51.270;4.456;2023-07-31T12:01:23;11.32;;;5.85;;
9496;SDS011;4786;51.270;4.456;2023-07-31T12:03:49;8.15;;;5.25;;
9496;SDS011;4786;51.270;4.456;2023-07-31T12:06:15;9.45;;;5.82;;
9496;SDS011;4786;51.270;4.456;2023-07-31T12:08:41;8.48;;;5.70;;
9496;SDS011;4786;51.270;4.456;2023-07-31T12:11:08;7.95;;;5.70;;
9496;SDS011;4786;51.270;4.456;2023-07-31T12:13:35;8.48;;;5.80;;
9496;SDS011;4786;51.270;4.456;2023-07-31T12:16:02;11.75;;;5.60;;
9496;SDS011;4786;51.270;4.456;2023-07-31T12:18:33;7.70;;;5.40;;
9496;SDS011;4786;51.270;4.456;2023-07-31T12:21:01;8.65;;;5.82;;
9496;SDS011;4786;51.270;4.456;2023-07-31T12:23:30;7.13;;;5.28;;
9496;SDS011;4786;51.270;4.456;2023-07-31T12:26:01;9.52;;;5.88;;
9496;SDS011;4786;51.270;4.456;2023-07-31T12:28:44;8.60;;;5.70;;
9496;SDS011;4786;51.270;4.456;2023-07-31T12:31:18;8.45;;;5.80;;
9496;SDS011;4786;51.270;4.456;2023-07-31T12:33:47;10.27;;;5.93;;
9496;SDS011;4786;51.270;4.456;2023-07-31T12:36:16;7.43;;;5.68;;
9496;SDS011;4786;51.270;4.456;2023-07-31T12:38:42;8.00;;;5.80;;
9496;SDS011;4786;51.270;4.456;2023-07-31T12:41:09;7.28;;;5.80;;
9496;SDS011;4786;51.270;4.456;2023-07-31T12:43:36;8.80;;;5.82;;
9496;SDS011;4786;51.270;4.456;2023-07-31T12:46:04;10.13;;;5.65;;
9496;SDS011;4786;51.270;4.456;2023-07-31T12:48:30;8.80;;;5.47;;
9496;SDS011;4786;51.270;4.456;2023-07-31T12:50:57;8.35;;;5.55;;
9496;SDS011;4786;51.270;4.456;2023-07-31T12:53:23;7.30;;;5.75;;
9496;SDS011;4786;51.270;4.456;2023-07-31T12:55:49;8.77;;;5.32;;
9496;SDS011;4786;51.270;4.456;2023-07-31T12:58:15;7.30;;;5.43;;
9496;SDS011;4786;51.270;4.456;2023-07-31T13:00:41;9.30;;;5.22;;
9496;SDS011;4786;51.270;4.456;2023-07-31T13:03:07;9.80;;;5.80;;
9496;SDS011;4786;51.270;4.456;2023-07-31T13:05:33;7.30;;;5.32;;
9496;SDS011;4786;51.270;4.456;2023-07-31T13:07:59;7.60;;;5.70;;
9496;SDS011;4786;51.270;4.456;2023-07-31T13:10:24;9.27;;;5.65;;
9496;SDS011;4786;51.270;4.456;2023-07-31T13:12:51;7.85;;;5.68;;
9496;SDS011;4786;51.270;4.456;2023-07-31T13:15:17;8.43;;;5.45;;
9496;SDS011;4786;51.270;4.456;2023-07-31T13:17:43;8.27;;;5.57;;
9496;SDS011;4786;51.270;4.456;2023-07-31T13:20:09;10.40;;;5.53;;
9496;SDS011;4786;51.270;4.456;2023-07-31T13:22:35;7.20;;;5.55;;
9496;SDS011;4786;51.270;4.456;2023-07-31T13:25:01;8.27;;;5.80;;
9496;SDS011;4786;51.270;4.456;2023-07-31T13:27:27;9.48;;;5.40;;
9496;SDS011;4786;51.270;4.456;2023-07-31T13:29:54;7.35;;;5.40;;
9496;SDS011;4786;51.270;4.456;2023-07-31T13:32:20;7.47;;;5.38;;
9496;SDS011;4786;51.270;4.456;2023-07-31T13:34:46;8.65;;;5.47;;
9496;SDS011;4786;51.270;4.456;2023-07-31T13:37:13;6.70;;;4.78;;
9496;SDS011;4786;51.270;4.456;2023-07-31T13:39:39;6.68;;;4.70;;
9496;SDS011;4786;51.270;4.456;2023-07-31T13:42:06;6.25;;;4.43;;
9496;SDS011;4786;51.270;4.456;2023-07-31T13:44:36;6.00;;;4.28;;
9496;SDS011;4786;51.270;4.456;2023-07-31T13:47:03;5.30;;;4.32;;
9496;SDS011;4786;51.270;4.456;2023-07-31T13:49:29;6.47;;;4.32;;
9496;SDS011;4786;51.270;4.456;2023-07-31T13:51:55;5.13;;;3.92;;
9496;SDS011;4786;51.270;4.456;2023-07-31T13:54:22;5.97;;;4.00;;
9496;SDS011;4786;51.270;4.456;2023-07-31T13:56:49;4.10;;;3.30;;
9496;SDS011;4786;51.270;4.456;2023-07-31T13:59:15;4.60;;;3.40;;
9496;SDS011;4786;51.270;4.456;2023-07-31T14:01:42;6.65;;;3.17;;
9496;SDS011;4786;51.270;4.456;2023-07-31T14:04:08;5.03;;;2.85;;
9496;SDS011;4786;51.270;4.456;2023-07-31T14:06:34;3.67;;;2.78;;
9496;SDS011;4786;51.270;4.456;2023-07-31T14:09:01;6.47;;;3.10;;
9496;SDS011;4786;51.270;4.456;2023-07-31T14:11:28;6.73;;;3.20;;
9496;SDS011;4786;51.270;4.456;2023-07-31T14:13:54;7.10;;;3.10;;
9496;SDS011;4786;51.270;4.456;2023-07-31T14:16:21;3.87;;;2.70;;
9496;SDS011;4786;51.270;4.456;2023-07-31T14:18:47;3.23;;;2.40;;
9496;SDS011;4786;51.270;4.456;2023-07-31T14:21:12;3.67;;;2.47;;
9496;SDS011;4786;51.270;4.456;2023-07-31T14:23:39;2.72;;;2.28;;
9496;SDS011;4786;51.270;4.456;2023-07-31T14:26:06;2.97;;;2.43;;
9496;SDS011;4786;51.270;4.456;2023-07-31T14:28:32;4.83;;;2.30;;
9496;SDS011;4786;51.270;4.456;2023-07-31T14:30:58;3.33;;;2.17;;
9496;SDS011;4786;51.270;4.456;2023-07-31T14:33:24;3.43;;;1.93;;
9496;SDS011;4786;51.270;4.456;2023-07-31T14:35:50;2.27;;;1.90;;
9496;SDS011;4786;51.270;4.456;2023-07-31T14:38:17;3.17;;;2.30;;
9496;SDS011;4786;51.270;4.456;2023-07-31T14:40:43;2.50;;;1.90;;
9496;SDS011;4786;51.270;4.456;2023-07-31T14:43:08;3.03;;;2.00;;
9496;SDS011;4786;51.270;4.456;2023-07-31T14:45:34;3.47;;;2.30;;
9496;SDS011;4786;51.270;4.456;2023-07-31T14:48:00;4.10;;;2.20;;
9496;SDS011;4786;51.270;4.456;2023-07-31T14:50:26;3.00;;;2.17;;
9496;SDS011;4786;51.270;4.456;2023-07-31T14:52:52;2.83;;;2.30;;
9496;SDS011;4786;51.270;4.456;2023-07-31T14:55:18;4.77;;;2.47;;
9496;SDS011;4786;51.270;4.456;2023-07-31T14:57:44;4.63;;;2.27;;
9496;SDS011;4786;51.270;4.456;2023-07-31T15:00:10;4.73;;;2.80;;
9496;SDS011;4786;51.270;4.456;2023-07-31T15:02:37;5.57;;;2.60;;
9496;SDS011;4786;51.270;4.456;2023-07-31T15:05:03;4.40;;;2.60;;
9496;SDS011;4786;51.270;4.456;2023-07-31T15:07:30;4.57;;;2.60;;
9496;SDS011;4786;51.270;4.456;2023-07-31T15:09:57;3.63;;;2.73;;
9496;SDS011;4786;51.270;4.456;2023-07-31T15:12:23;4.47;;;3.00;;
9496;SDS011;4786;51.270;4.456;2023-07-31T15:14:50;3.00;;;2.67;;
9496;SDS011;4786;51.270;4.456;2023-07-31T15:17:17;3.70;;;2.77;;
9496;SDS011;4786;51.270;4.456;2023-07-31T15:19:43;4.30;;;2.90;;
9496;SDS011;4786;51.270;4.456;2023-07-31T15:22:09;6.53;;;3.10;;